createdAt,value
2022-11-20T00:00:40.574Z,85.05
2022-11-20T00:03:07.115Z,84.78
2022-11-20T00:05:33.924Z,84.89
2022-11-20T00:08:00.539Z,84.41
2022-11-20T00:10:27.146Z,84.72
2022-11-20T00:12:53.822Z,85.07
2022-11-20T00:15:20.366Z,84.43
2022-11-20T00:17:48.269Z,84.56
2022-11-20T00:20:15.673Z,84.28
2022-11-20T00:22:42.238Z,84.41
2022-11-20T00:25:09.170Z,84.44
2022-11-20T00:27:35.747Z,84.46
2022-11-20T00:30:02.374Z,84.35
2022-11-20T00:32:28.950Z,84.78
2022-11-20T00:34:56.967Z,84.32
2022-11-20T00:37:23.616Z,84.26
2022-11-20T00:39:50.217Z,84.61
2022-11-20T00:42:16.861Z,84.45
2022-11-20T00:44:43.551Z,84.37
2022-11-20T00:47:10.128Z,84.26
2022-11-20T00:49:36.720Z,84.24
2022-11-20T00:52:04.979Z,84.64
2022-11-20T00:54:31.885Z,84.49
2022-11-20T00:56:58.497Z,84.62
2022-11-20T00:59:25.067Z,84.46
2022-11-20T01:01:51.640Z,84.16
2022-11-20T01:04:18.244Z,84.62
2022-11-20T01:06:44.848Z,84.43
2022-11-20T01:09:14.583Z,84.54
2022-11-20T01:11:43.500Z,84.81
2022-11-20T01:14:12.969Z,83.99
2022-11-20T01:16:41.605Z,84.00
2022-11-20T01:19:17.372Z,83.78
2022-11-20T01:21:46.466Z,83.91
2022-11-20T01:24:15.913Z,84.33
2022-11-20T01:26:43.892Z,83.87
2022-11-20T01:29:14.766Z,83.73
2022-11-20T01:31:41.413Z,83.78
2022-11-20T01:34:11.298Z,84.12
2022-11-20T01:36:39.248Z,83.65
2022-11-20T01:39:08.476Z,83.55
2022-11-20T01:41:36.502Z,83.61
2022-11-20T01:44:04.901Z,83.65
2022-11-20T01:46:32.939Z,83.86
2022-11-20T01:49:03.315Z,83.78
2022-11-20T01:51:34.271Z,83.56
2022-11-20T01:54:06.191Z,83.12
2022-11-20T01:56:39.898Z,83.50
2022-11-20T01:59:09.449Z,83.06
2022-11-20T02:01:36.059Z,83.02
2022-11-20T02:04:03.440Z,83.20
2022-11-20T02:06:35.182Z,83.33
2022-11-20T02:09:01.841Z,83.07
2022-11-20T02:11:31.227Z,83.12
2022-11-20T02:14:00.385Z,82.83
2022-11-20T02:16:30.108Z,83.30
2022-11-20T02:19:00.549Z,82.84
2022-11-20T02:21:37.341Z,83.17
2022-11-20T02:24:16.053Z,82.65
2022-11-20T02:26:49.078Z,82.76
2022-11-20T02:29:19.814Z,82.51
2022-11-20T02:31:47.039Z,82.94
2022-11-20T02:34:13.622Z,83.07
2022-11-20T02:36:43.320Z,83.20
2022-11-20T02:39:12.231Z,82.75
2022-11-20T02:41:40.267Z,83.05
2022-11-20T02:44:06.877Z,82.61
2022-11-20T02:46:33.548Z,82.84
2022-11-20T02:49:01.092Z,82.65
2022-11-20T02:51:27.738Z,82.88
2022-11-20T02:53:54.353Z,82.88
2022-11-20T02:56:21.066Z,83.25
2022-11-20T02:58:49.078Z,83.54
2022-11-20T03:01:15.891Z,82.97
2022-11-20T03:03:42.549Z,83.53
2022-11-20T03:06:09.288Z,83.48
2022-11-20T03:08:35.874Z,83.17
2022-11-20T03:11:06.889Z,83.05
2022-11-20T03:13:33.967Z,82.77
2022-11-20T03:16:08.033Z,82.81
2022-11-20T03:18:34.618Z,82.84
2022-11-20T03:21:01.361Z,82.98
2022-11-20T03:23:30.812Z,82.92
2022-11-20T03:25:57.500Z,82.64
2022-11-20T03:28:24.106Z,82.57
2022-11-20T03:30:50.664Z,82.38
2022-11-20T03:33:18.612Z,82.39
2022-11-20T03:35:45.144Z,82.53
2022-11-20T03:38:11.739Z,82.84
2022-11-20T03:40:38.404Z,82.45
2022-11-20T03:43:04.989Z,82.98
2022-11-20T03:45:31.525Z,82.93
2022-11-20T03:47:58.076Z,82.96
2022-11-20T03:50:26.012Z,82.80
2022-11-20T03:52:52.746Z,82.85
2022-11-20T03:55:19.320Z,82.94
2022-11-20T03:57:45.887Z,82.80
2022-11-20T04:00:13.991Z,82.98
2022-11-20T04:02:40.771Z,82.81
2022-11-20T04:05:07.791Z,82.57
2022-11-20T04:07:36.368Z,82.84
2022-11-20T04:10:03.762Z,83.45
2022-11-20T04:12:33.147Z,83.46
2022-11-20T04:14:59.689Z,83.19
2022-11-20T04:17:26.216Z,83.69
2022-11-20T04:19:52.816Z,83.62
2022-11-20T04:22:19.457Z,83.77
2022-11-20T04:24:47.363Z,84.09
2022-11-20T04:27:13.934Z,83.90
2022-11-20T04:29:40.492Z,84.28
2022-11-20T04:32:07.171Z,84.15
2022-11-20T04:34:33.885Z,84.73
2022-11-20T04:37:00.447Z,84.21
2022-11-20T04:39:27.085Z,84.13
2022-11-20T04:41:55.145Z,84.70
2022-11-20T04:44:21.728Z,83.98
2022-11-20T04:46:48.276Z,84.63
2022-11-20T04:49:15.381Z,84.30
2022-11-20T04:51:42.103Z,84.58
2022-11-20T04:54:09.458Z,84.67
2022-11-20T04:56:35.996Z,84.57
2022-11-20T04:59:04.001Z,84.31
2022-11-20T05:01:31.364Z,84.23
2022-11-20T05:03:58.016Z,84.65
2022-11-20T05:06:24.603Z,84.73
2022-11-20T05:08:51.366Z,84.41
2022-11-20T05:11:19.914Z,83.98
2022-11-20T05:13:46.571Z,84.12
2022-11-20T05:16:16.553Z,84.49
2022-11-20T05:18:43.730Z,84.16
2022-11-20T05:21:11.663Z,84.55
2022-11-20T05:23:38.420Z,84.50
2022-11-20T05:26:06.089Z,84.42
2022-11-20T05:28:34.756Z,84.45
2022-11-20T05:31:06.243Z,84.56
2022-11-20T05:33:35.406Z,84.16
2022-11-20T05:36:02.236Z,84.77
2022-11-20T05:38:28.805Z,84.76
2022-11-20T05:40:55.438Z,84.99
2022-11-20T05:43:22.001Z,84.46
2022-11-20T05:45:53.569Z,84.50
2022-11-20T05:48:20.096Z,84.69
2022-11-20T05:50:48.139Z,84.44
2022-11-20T05:53:14.707Z,84.81
2022-11-20T05:55:41.523Z,85.10
2022-11-20T05:58:08.199Z,84.97
2022-11-20T06:00:34.900Z,85.18
2022-11-20T06:03:01.506Z,85.18
2022-11-20T06:05:28.194Z,84.77
2022-11-20T06:07:56.132Z,84.71
2022-11-20T06:10:22.718Z,84.96
2022-11-20T06:12:49.271Z,85.16
2022-11-20T06:15:16.222Z,84.89
2022-11-20T06:17:42.767Z,84.58
2022-11-20T06:20:10.826Z,84.57
2022-11-20T06:22:37.399Z,84.46
2022-11-20T06:25:05.718Z,85.17
2022-11-20T06:27:32.269Z,85.27
2022-11-20T06:29:58.884Z,84.99
2022-11-20T06:32:25.557Z,85.05
2022-11-20T06:34:52.114Z,85.22
2022-11-20T06:37:18.690Z,84.97
2022-11-20T06:39:45.232Z,85.14
2022-11-20T06:42:13.274Z,85.24
2022-11-20T06:44:39.818Z,85.45
2022-11-20T06:47:06.416Z,85.02
2022-11-20T06:49:33.002Z,85.31
2022-11-20T06:51:59.595Z,84.59
2022-11-20T06:54:26.263Z,85.25
2022-11-20T06:56:52.816Z,85.25
2022-11-20T06:59:21.172Z,85.32
2022-11-20T07:01:47.885Z,84.83
2022-11-20T07:04:14.487Z,85.31
2022-11-20T07:06:41.111Z,84.91
2022-11-20T07:09:12.544Z,85.10
2022-11-20T07:11:39.496Z,85.26
2022-11-20T07:14:06.054Z,84.97
2022-11-20T07:16:34.391Z,84.95
2022-11-20T07:19:01.002Z,84.68
2022-11-20T07:21:27.612Z,84.66
2022-11-20T07:23:54.236Z,84.86
2022-11-20T07:26:20.806Z,84.94
2022-11-20T07:28:47.356Z,84.23
2022-11-20T07:31:18.785Z,84.25
2022-11-20T07:33:47.524Z,84.21
2022-11-20T07:36:14.109Z,84.35
2022-11-20T07:38:40.728Z,84.20
2022-11-20T07:41:07.293Z,84.52
2022-11-20T07:43:37.172Z,84.03
2022-11-20T07:46:06.394Z,83.92
2022-11-20T07:48:33.024Z,83.58
2022-11-20T07:51:01.049Z,83.63
2022-11-20T07:53:27.606Z,83.83
2022-11-20T07:55:54.253Z,83.43
2022-11-20T07:58:21.696Z,83.19
2022-11-20T08:00:48.286Z,82.98
2022-11-20T08:03:15.334Z,82.48
2022-11-20T08:05:43.673Z,82.52
2022-11-20T08:08:11.671Z,82.61
2022-11-20T08:10:38.312Z,82.59
2022-11-20T08:13:04.897Z,82.71
2022-11-20T08:15:31.907Z,82.03
2022-11-20T08:18:29.526Z,82.38
2022-11-20T08:20:49.330Z,82.03
2022-11-20T08:23:17.278Z,82.17
2022-11-20T08:25:43.829Z,81.81
2022-11-20T08:28:20.127Z,81.87
2022-11-20T08:30:47.236Z,82.27
2022-11-20T08:33:13.800Z,82.12
2022-11-20T08:35:40.422Z,82.09
2022-11-20T08:38:07.581Z,81.79
2022-11-20T08:40:35.545Z,81.67
2022-11-20T08:43:02.102Z,81.41
2022-11-20T08:45:33.780Z,80.98
2022-11-20T08:48:01.919Z,80.81
2022-11-20T08:50:28.640Z,80.77
2022-11-20T08:52:55.230Z,80.86
2022-11-20T08:55:21.937Z,80.41
2022-11-20T08:57:51.244Z,79.61
2022-11-20T09:00:18.285Z,79.21
2022-11-20T09:02:44.842Z,79.61
2022-11-20T09:05:12.191Z,79.20
2022-11-20T09:07:38.780Z,78.94
2022-11-20T09:12:54.871Z,78.42
2022-11-20T09:15:22.446Z,77.90
2022-11-20T09:17:52.563Z,78.90
2022-11-20T09:20:19.208Z,78.24
2022-11-20T09:22:45.850Z,78.06
2022-11-20T09:25:12.509Z,77.83
2022-11-20T09:27:39.129Z,77.83
2022-11-20T09:30:08.616Z,77.58
2022-11-20T09:32:35.252Z,77.48
2022-11-20T09:37:33.462Z,77.52
2022-11-20T09:40:00.119Z,77.33
2022-11-20T09:42:41.645Z,77.15
2022-11-20T09:45:19.679Z,77.05
2022-11-20T09:48:00.748Z,76.54
2022-11-20T09:50:32.462Z,76.30
2022-11-20T09:53:12.014Z,76.28
2022-11-20T09:55:39.564Z,76.28
2022-11-20T09:58:08.652Z,76.00
2022-11-20T10:00:38.351Z,76.04
2022-11-20T10:03:14.515Z,75.96
2022-11-20T10:05:45.908Z,75.75
2022-11-20T10:08:18.628Z,75.59
2022-11-20T10:10:52.432Z,75.94
2022-11-20T10:13:32.862Z,75.45
2022-11-20T10:16:17.981Z,75.77
2022-11-20T10:18:59.149Z,75.70
2022-11-20T10:21:37.711Z,74.83
2022-11-20T10:24:23.657Z,74.96
2022-11-20T10:27:00.135Z,74.52
2022-11-20T10:29:33.383Z,75.18
2022-11-20T10:32:05.138Z,74.28
2022-11-20T10:34:39.632Z,74.88
2022-11-20T10:37:12.875Z,74.16
2022-11-20T10:39:48.292Z,74.08
2022-11-20T10:42:23.445Z,74.00
2022-11-20T10:44:56.640Z,74.47
2022-11-20T10:47:27.312Z,74.32
2022-11-20T10:49:56.682Z,73.52
2022-11-20T10:52:33.891Z,72.93
2022-11-20T10:55:12.578Z,73.28
2022-11-20T10:57:53.100Z,73.48
2022-11-20T11:00:19.682Z,72.82
2022-11-20T11:02:49.338Z,72.89
2022-11-20T11:05:28.723Z,72.55
2022-11-20T11:07:56.730Z,71.84
2022-11-20T11:10:29.548Z,72.45
2022-11-20T11:12:56.206Z,72.28
2022-11-20T11:15:28.722Z,73.10
2022-11-20T11:17:57.024Z,73.46
2022-11-20T11:20:24.933Z,73.78
2022-11-20T11:22:53.495Z,74.25
2022-11-20T11:25:25.148Z,73.75
2022-11-20T11:27:53.756Z,74.17
2022-11-20T11:30:21.204Z,74.27
2022-11-20T11:32:48.260Z,74.89
2022-11-20T11:35:25.768Z,74.92
2022-11-20T11:37:54.779Z,74.71
2022-11-20T11:40:24.675Z,74.94
2022-11-20T11:42:55.793Z,75.19
2022-11-20T11:45:22.558Z,74.76
2022-11-20T11:47:51.258Z,75.14
2022-11-20T11:50:21.461Z,74.86
2022-11-20T11:53:09.526Z,74.54
2022-11-20T11:55:41.323Z,74.45
2022-11-20T11:58:18.027Z,74.32
2022-11-20T12:00:52.438Z,73.88
2022-11-20T12:03:22.670Z,74.53
2022-11-20T12:05:56.397Z,74.30
2022-11-20T12:08:30.963Z,74.17
2022-11-20T12:11:04.307Z,74.68
2022-11-20T12:13:38.511Z,74.27
2022-11-20T12:16:05.701Z,74.13
2022-11-20T12:18:32.571Z,74.77
2022-11-20T12:21:12.972Z,74.47
2022-11-20T12:23:52.464Z,74.64
2022-11-20T12:26:31.021Z,74.86
2022-11-20T12:29:08.005Z,74.98
2022-11-20T12:31:53.854Z,74.24
2022-11-20T12:34:37.805Z,73.86
2022-11-20T12:37:13.803Z,74.40
2022-11-20T12:39:49.590Z,74.60
2022-11-20T12:42:31.957Z,74.88
2022-11-20T12:45:11.365Z,74.35
2022-11-20T12:48:00.456Z,74.50
2022-11-20T12:51:00.361Z,74.70
2022-11-20T12:53:34.324Z,74.68
2022-11-20T12:56:18.412Z,75.05
2022-11-20T12:58:55.629Z,75.02
2022-11-20T13:01:28.724Z,74.78
2022-11-20T13:03:59.764Z,74.79
2022-11-20T13:06:27.147Z,74.28
2022-11-20T13:08:55.426Z,74.68
2022-11-20T13:11:32.342Z,74.96
2022-11-20T13:14:13.825Z,74.56
2022-11-20T13:16:47.660Z,75.15
2022-11-20T13:19:16.709Z,74.98
2022-11-20T13:21:45.735Z,75.35
2022-11-20T13:24:23.875Z,75.13
2022-11-20T13:27:06.394Z,75.09
2022-11-20T13:29:34.357Z,75.59
2022-11-20T13:32:08.106Z,75.41
2022-11-20T13:34:36.202Z,75.66
2022-11-20T13:37:03.048Z,75.59
2022-11-20T13:39:32.226Z,76.11
2022-11-20T13:42:01.097Z,76.45
2022-11-20T13:44:35.587Z,76.31
2022-11-20T13:47:02.396Z,76.38
2022-11-20T13:49:33.496Z,77.17
2022-11-20T13:52:21.648Z,77.22
2022-11-20T13:55:07.909Z,77.79
2022-11-20T13:57:51.988Z,78.13
2022-11-20T14:00:21.527Z,77.86
2022-11-20T14:03:00.954Z,78.35
2022-11-20T14:05:27.896Z,78.38
2022-11-20T14:07:55.572Z,79.08
2022-11-20T14:10:31.099Z,78.96
2022-11-20T14:12:58.895Z,78.98
2022-11-20T14:15:29.824Z,79.51
2022-11-20T14:17:57.006Z,79.32
2022-11-20T14:20:26.896Z,78.93
2022-11-20T14:22:55.268Z,79.21
2022-11-20T14:25:23.253Z,79.52
2022-11-20T14:27:53.842Z,79.91
2022-11-20T14:30:23.255Z,79.92
2022-11-20T14:32:54.136Z,79.68
2022-11-20T14:35:24.887Z,79.78
2022-11-20T14:37:52.459Z,79.44
2022-11-20T14:40:28.833Z,79.40
2022-11-20T14:42:56.020Z,79.78
2022-11-20T14:45:23.667Z,79.83
2022-11-20T14:47:52.949Z,79.94
2022-11-20T14:50:22.957Z,80.26
2022-11-20T14:52:55.139Z,80.03
2022-11-20T14:55:32.379Z,80.17
2022-11-20T14:58:01.143Z,79.84
2022-11-20T15:00:28.780Z,79.82
2022-11-20T15:02:57.180Z,79.96
2022-11-20T15:05:26.408Z,79.58
2022-11-20T15:08:06.962Z,80.17
2022-11-20T15:10:33.977Z,80.13
2022-11-20T15:13:08.348Z,80.29
2022-11-20T15:15:47.924Z,80.42
2022-11-20T15:18:18.757Z,80.46
2022-11-20T15:20:45.802Z,80.11
2022-11-20T15:23:14.267Z,80.09
2022-11-20T15:25:42.435Z,80.15
2022-11-20T15:28:16.887Z,80.75
2022-11-20T15:30:43.644Z,80.36
2022-11-20T15:33:11.051Z,80.05
2022-11-20T15:35:39.549Z,79.38
2022-11-20T15:38:06.231Z,79.69
2022-11-20T15:40:33.256Z,79.37
2022-11-20T15:43:00.037Z,79.14
2022-11-20T15:45:29.346Z,78.97
2022-11-20T15:47:56.231Z,79.04
2022-11-20T15:50:26.516Z,79.18
2022-11-20T15:52:54.623Z,79.18
2022-11-20T15:55:21.342Z,79.61
2022-11-20T15:57:48.000Z,79.79
2022-11-20T16:00:19.279Z,79.29
2022-11-20T16:02:50.032Z,79.47
2022-11-20T16:05:16.864Z,79.33
2022-11-20T16:07:43.609Z,79.03
2022-11-20T16:10:11.809Z,79.61
2022-11-20T16:12:38.452Z,79.36
2022-11-20T16:15:10.796Z,79.29
2022-11-20T16:17:40.076Z,79.13
2022-11-20T16:20:11.403Z,79.20
2022-11-20T16:22:38.131Z,79.29
2022-11-20T16:25:05.570Z,79.20
2022-11-20T16:27:33.689Z,79.20
2022-11-20T16:30:00.276Z,79.14
2022-11-20T16:32:27.003Z,79.93
2022-11-20T16:34:53.663Z,79.85
2022-11-20T16:37:20.335Z,79.59
2022-11-20T16:39:47.030Z,80.08
2022-11-20T16:42:13.730Z,79.88
2022-11-20T16:44:41.833Z,79.53
2022-11-20T16:47:08.694Z,79.35
2022-11-20T16:49:35.327Z,79.15
2022-11-20T16:52:02.114Z,79.67
2022-11-20T16:54:28.864Z,79.56
2022-11-20T16:56:55.617Z,79.97
2022-11-20T16:59:22.362Z,79.71
2022-11-20T17:01:50.644Z,80.10
2022-11-20T17:04:17.478Z,80.61
2022-11-20T17:06:44.594Z,80.40
2022-11-20T17:09:13.800Z,80.97
2022-11-20T17:11:40.469Z,81.69
2022-11-20T17:14:07.251Z,81.53
2022-11-20T17:16:35.328Z,81.42
2022-11-20T17:19:04.617Z,81.97
2022-11-20T17:21:31.882Z,82.28
2022-11-20T17:24:01.505Z,82.18
2022-11-20T17:26:28.244Z,81.97
2022-11-20T17:28:56.686Z,82.35
2022-11-20T17:31:23.610Z,82.42
2022-11-20T17:33:50.433Z,82.08
2022-11-20T17:36:20.170Z,82.42
2022-11-20T17:38:47.459Z,82.40
2022-11-20T17:41:15.956Z,81.89
2022-11-20T17:43:43.509Z,81.84
2022-11-20T17:46:12.405Z,82.11
2022-11-20T17:48:39.777Z,81.69
2022-11-20T17:51:06.864Z,82.21
2022-11-20T17:53:36.698Z,81.70
2022-11-20T17:56:04.091Z,81.31
2022-11-20T17:58:30.755Z,81.26
2022-11-20T18:01:04.951Z,81.19
2022-11-20T18:03:31.710Z,80.71
2022-11-20T18:05:58.324Z,80.39
2022-11-20T18:08:27.307Z,80.14
2022-11-20T18:10:55.382Z,80.49
2022-11-20T18:13:22.125Z,80.22
2022-11-20T18:15:49.049Z,79.83
2022-11-20T18:18:15.767Z,80.12
2022-11-20T18:20:42.473Z,80.05
2022-11-20T18:23:09.151Z,79.81
2022-11-20T18:25:35.850Z,79.63
2022-11-20T18:28:03.981Z,79.67
2022-11-20T18:30:30.832Z,79.71
2022-11-20T18:32:57.609Z,79.66
2022-11-20T18:35:24.444Z,79.57
2022-11-20T18:37:51.148Z,79.68
2022-11-20T18:40:17.858Z,79.85
2022-11-20T18:42:44.562Z,79.85
2022-11-20T18:45:12.728Z,79.62
2022-11-20T18:47:39.488Z,79.92
2022-11-20T18:50:08.400Z,80.03
2022-11-20T18:52:39.633Z,80.33
2022-11-20T18:55:07.997Z,80.67
2022-11-20T18:57:34.770Z,80.96
2022-11-20T19:00:07.997Z,80.94
2022-11-20T19:02:42.329Z,80.92
2022-11-20T19:05:10.470Z,80.43
2022-11-20T19:07:37.222Z,80.73
2022-11-20T19:10:04.711Z,80.57
2022-11-20T19:12:31.918Z,80.24
2022-11-20T19:14:58.553Z,80.27
2022-11-20T19:17:25.256Z,80.29
2022-11-20T19:19:53.385Z,80.43
2022-11-20T19:22:20.154Z,80.87
2022-11-20T19:24:46.981Z,81.17
2022-11-20T19:27:13.715Z,81.31
2022-11-20T19:29:40.383Z,81.41
2022-11-20T19:32:07.169Z,80.93
2022-11-20T19:34:33.824Z,80.69
2022-11-20T19:37:02.026Z,81.01
2022-11-20T19:39:28.823Z,81.69
2022-11-20T19:41:55.589Z,81.91
2022-11-20T19:44:22.334Z,82.24
2022-11-20T19:46:49.201Z,82.05
2022-11-20T19:49:15.931Z,82.34
2022-11-20T19:51:46.001Z,81.76
2022-11-20T19:54:14.734Z,81.86
2022-11-20T19:56:41.454Z,81.97
2022-11-20T19:59:08.155Z,81.86
2022-11-20T20:01:35.017Z,81.07
2022-11-20T20:04:02.011Z,81.15
2022-11-20T20:06:29.027Z,80.84
2022-11-20T20:08:57.153Z,80.43
2022-11-20T20:11:27.089Z,80.60
2022-11-20T20:13:54.106Z,80.89
2022-11-20T20:16:22.709Z,80.34
2022-11-20T20:18:49.668Z,80.20
2022-11-20T20:21:17.353Z,80.06
2022-11-20T20:23:44.493Z,79.98
2022-11-20T20:26:11.871Z,79.84
2022-11-20T20:28:39.802Z,80.15
2022-11-20T20:31:08.164Z,80.17
2022-11-20T20:33:35.737Z,80.55
2022-11-20T20:36:02.338Z,79.94
2022-11-20T20:38:28.890Z,79.95
2022-11-20T20:40:56.581Z,81.03
2022-11-20T20:43:23.274Z,80.27
2022-11-20T20:45:51.775Z,80.13
2022-11-20T20:48:20.911Z,80.57
2022-11-20T20:50:53.874Z,80.39
2022-11-20T20:53:20.522Z,80.16
2022-11-20T20:55:53.923Z,79.83
2022-11-20T20:58:20.597Z,80.04
2022-11-20T21:00:47.198Z,79.67
2022-11-20T21:03:15.279Z,79.94
2022-11-20T21:05:41.937Z,79.50
2022-11-20T21:08:08.704Z,79.30
2022-11-20T21:10:35.299Z,79.50
2022-11-20T21:13:01.863Z,79.32
2022-11-20T21:15:28.643Z,79.41
2022-11-20T21:17:55.247Z,80.20
2022-11-20T21:20:23.339Z,79.93
2022-11-20T21:22:49.893Z,80.16
2022-11-20T21:25:16.653Z,80.04
2022-11-20T21:27:43.259Z,79.71
2022-11-20T21:30:10.863Z,79.16
2022-11-20T21:32:37.427Z,79.27
2022-11-20T21:35:04.430Z,79.00
2022-11-20T21:37:34.973Z,79.12
2022-11-20T21:40:04.377Z,78.81
2022-11-20T21:42:30.987Z,78.71
2022-11-20T21:44:57.784Z,78.82
2022-11-20T21:47:24.399Z,79.23
2022-11-20T21:49:51.006Z,79.13
2022-11-20T21:52:17.598Z,79.13
2022-11-20T21:54:45.558Z,78.68
2022-11-20T21:57:12.113Z,78.60
2022-11-20T21:59:38.686Z,78.78
2022-11-20T22:02:05.365Z,78.88
2022-11-20T22:04:32.055Z,79.18
2022-11-20T22:06:58.666Z,78.57
2022-11-20T22:09:25.333Z,78.33
2022-11-20T22:11:53.257Z,78.46
2022-11-20T22:14:19.826Z,78.44
2022-11-20T22:16:46.765Z,78.48
2022-11-20T22:19:16.106Z,78.02
2022-11-20T22:21:42.690Z,78.03
2022-11-20T22:24:12.465Z,78.36
2022-11-20T22:26:40.631Z,78.46
2022-11-20T22:29:14.018Z,78.50
2022-11-20T22:31:40.945Z,78.73
2022-11-20T22:34:10.731Z,78.59
2022-11-20T22:36:37.952Z,78.45
2022-11-20T22:39:05.213Z,78.65
2022-11-20T22:41:32.209Z,78.86
2022-11-20T22:44:00.226Z,78.17
2022-11-20T22:46:30.593Z,78.39
2022-11-20T22:48:59.114Z,78.77
2022-11-20T22:51:27.848Z,78.62
2022-11-20T22:53:54.694Z,79.60
2022-11-20T22:56:21.661Z,79.99
2022-11-20T22:58:50.707Z,79.89
2022-11-20T23:01:19.180Z,79.70
2022-11-20T23:03:49.635Z,79.67
2022-11-20T23:06:17.410Z,79.63
2022-11-20T23:08:44.441Z,79.98
2022-11-20T23:11:13.346Z,80.29
2022-11-20T23:13:40.735Z,80.55
2022-11-20T23:16:09.395Z,80.36
2022-11-20T23:18:36.534Z,80.44
2022-11-20T23:21:08.613Z,80.47
2022-11-20T23:23:35.607Z,80.56
2022-11-20T23:26:02.515Z,80.54
2022-11-20T23:28:29.578Z,80.85
2022-11-20T23:30:56.418Z,80.98
2022-11-20T23:33:23.320Z,80.99
2022-11-20T23:35:50.185Z,81.67
2022-11-20T23:38:18.383Z,81.44
2022-11-20T23:40:47.148Z,81.97
2022-11-20T23:43:13.980Z,82.05
2022-11-20T23:45:40.862Z,82.63
2022-11-20T23:48:07.800Z,83.15
2022-11-20T23:50:35.034Z,82.97
2022-11-20T23:53:01.903Z,83.32
2022-11-20T23:55:30.402Z,83.28
2022-11-20T23:57:57.234Z,83.72
